createdAt,value
2023-01-20T00:01:31.992Z,52.30
2023-01-20T00:04:00.532Z,53.97
2023-01-20T00:06:29.387Z,52.05
2023-01-20T00:08:58.831Z,47.88
2023-01-20T00:11:27.964Z,51.78
2023-01-20T00:13:59.434Z,49.28
2023-01-20T00:16:28.758Z,48.05
2023-01-20T00:18:57.391Z,56.30
2023-01-20T00:21:25.655Z,56.97
2023-01-20T00:23:54.150Z,60.28
2023-01-20T00:26:24.231Z,64.95
2023-01-20T00:28:55.368Z,61.33
2023-01-20T00:31:26.494Z,59.25
2023-01-20T00:33:56.562Z,70.18
2023-01-20T00:36:25.798Z,67.20
2023-01-20T00:38:54.598Z,69.72
2023-01-20T00:41:22.893Z,68.70
2023-01-20T00:43:51.626Z,66.13
2023-01-20T00:46:19.880Z,67.18
2023-01-20T00:48:50.046Z,68.53
2023-01-20T00:51:18.205Z,65.63
2023-01-20T00:53:46.739Z,55.53
2023-01-20T00:56:15.143Z,60.40
2023-01-20T00:58:44.798Z,58.05
2023-01-20T01:01:13.774Z,64.38
2023-01-20T01:03:42.427Z,60.50
2023-01-20T01:06:14.085Z,58.75
2023-01-20T01:08:42.719Z,60.88
2023-01-20T01:11:11.823Z,58.20
2023-01-20T01:13:40.729Z,58.20
2023-01-20T01:16:12.303Z,62.40
2023-01-20T01:18:40.996Z,65.15
2023-01-20T01:21:11.138Z,65.20
2023-01-20T01:23:41.029Z,65.88
2023-01-20T01:26:10.152Z,61.05
2023-01-20T01:28:38.849Z,67.40
2023-01-20T01:31:08.902Z,63.83
2023-01-20T01:33:37.675Z,64.13
2023-01-20T01:36:08.601Z,64.82
2023-01-20T01:41:06.893Z,69.57
2023-01-20T01:43:37.184Z,65.68
2023-01-20T01:46:06.270Z,67.90
2023-01-20T01:48:37.683Z,64.68
2023-01-20T01:51:09.394Z,69.35
2023-01-20T01:53:41.347Z,60.70
2023-01-20T01:56:11.636Z,62.60
2023-01-20T01:58:42.970Z,60.53
2023-01-20T02:01:11.708Z,67.75
2023-01-20T02:03:44.954Z,61.95
2023-01-20T02:06:13.742Z,70.53
2023-01-20T02:08:42.398Z,60.85
2023-01-20T02:11:12.000Z,71.55
2023-01-20T02:13:40.677Z,63.17
2023-01-20T02:16:16.403Z,62.10
2023-01-20T02:18:58.866Z,61.35
2023-01-20T02:22:03.487Z,59.50
2023-01-20T02:25:13.934Z,55.95
2023-01-20T02:28:17.054Z,57.05
2023-01-20T02:31:12.231Z,60.90
2023-01-20T02:33:43.074Z,60.00
2023-01-20T02:36:13.699Z,55.95
2023-01-20T02:38:45.673Z,60.70
2023-01-20T02:41:19.177Z,56.83
2023-01-20T02:43:50.537Z,57.20
2023-01-20T02:46:24.718Z,61.33
2023-01-20T02:48:57.273Z,61.53
2023-01-20T02:51:28.178Z,60.53
2023-01-20T02:53:58.953Z,58.67
2023-01-20T02:56:30.333Z,57.63
2023-01-20T02:59:01.166Z,45.95
2023-01-20T03:01:33.640Z,49.15
2023-01-20T03:04:04.556Z,47.00
2023-01-20T03:06:36.416Z,55.42
2023-01-20T03:09:08.260Z,48.13
2023-01-20T03:11:38.940Z,60.83
2023-01-20T03:14:08.844Z,59.38
2023-01-20T03:16:37.575Z,57.03
2023-01-20T03:19:07.310Z,54.70
2023-01-20T03:21:36.412Z,58.70
2023-01-20T03:24:06.822Z,61.10
2023-01-20T03:26:35.484Z,59.70
2023-01-20T03:29:06.770Z,51.53
2023-01-20T03:31:37.812Z,70.32
2023-01-20T03:34:11.192Z,84.40
2023-01-20T03:36:40.505Z,75.22
2023-01-20T03:39:08.936Z,67.53
2023-01-20T03:41:44.883Z,64.95
2023-01-20T03:44:18.192Z,62.40
2023-01-20T03:46:49.541Z,61.20
2023-01-20T03:49:25.583Z,57.90
2023-01-20T03:52:00.586Z,59.03
2023-01-20T03:54:34.998Z,56.30
2023-01-20T03:57:07.703Z,47.15
2023-01-20T03:59:37.160Z,45.92
2023-01-20T04:02:08.880Z,40.28
2023-01-20T04:04:40.685Z,39.15
2023-01-20T04:07:13.323Z,36.60
2023-01-20T04:09:44.715Z,37.05
2023-01-20T04:12:28.411Z,34.60
2023-01-20T04:14:56.719Z,39.03
2023-01-20T04:17:28.776Z,43.40
2023-01-20T04:19:58.851Z,42.42
2023-01-20T04:22:30.939Z,47.13
2023-01-20T04:25:02.859Z,37.58
2023-01-20T04:27:31.389Z,43.22
2023-01-20T04:29:59.616Z,37.60
2023-01-20T04:32:28.266Z,45.00
2023-01-20T04:34:56.536Z,39.17
2023-01-20T04:37:26.633Z,38.08
2023-01-20T04:39:54.993Z,40.80
2023-01-20T04:42:23.441Z,37.45
2023-01-20T04:44:51.821Z,34.45
2023-01-20T04:47:20.348Z,37.08
2023-01-20T04:49:48.615Z,36.05
2023-01-20T04:52:17.677Z,37.97
2023-01-20T04:54:47.492Z,39.80
2023-01-20T04:57:16.155Z,34.58
2023-01-20T04:59:45.304Z,33.80
2023-01-20T05:02:14.048Z,32.92
2023-01-20T05:04:42.321Z,31.63
2023-01-20T05:07:11.261Z,35.10
2023-01-20T05:09:39.483Z,32.53
2023-01-20T05:12:09.863Z,33.88
2023-01-20T05:14:38.258Z,29.35
2023-01-20T05:17:06.823Z,26.50
2023-01-20T05:19:35.053Z,31.50
2023-01-20T05:22:03.660Z,31.17
2023-01-20T05:24:32.010Z,32.30
2023-01-20T05:27:01.568Z,30.85
2023-01-20T05:29:31.381Z,30.20
2023-01-20T05:31:59.923Z,31.27
2023-01-20T05:34:28.228Z,28.00
2023-01-20T05:36:56.772Z,29.25
2023-01-20T05:39:25.119Z,29.88
2023-01-20T05:41:53.944Z,27.98
2023-01-20T05:44:22.842Z,32.15
2023-01-20T05:46:52.826Z,31.08
2023-01-20T05:49:21.169Z,30.17
2023-01-20T05:51:49.718Z,38.10
2023-01-20T05:54:18.449Z,38.65
2023-01-20T05:56:49.106Z,39.38
2023-01-20T05:59:17.332Z,40.97
2023-01-20T06:01:46.437Z,38.60
2023-01-20T06:04:16.023Z,48.75
2023-01-20T06:06:44.538Z,49.83
2023-01-20T06:09:12.742Z,58.35
2023-01-20T06:11:41.219Z,52.85
2023-01-20T06:14:09.492Z,55.83
2023-01-20T06:16:38.037Z,54.10
2023-01-20T06:19:06.336Z,54.08
2023-01-20T06:21:36.322Z,64.32
2023-01-20T06:24:04.806Z,53.45
2023-01-20T06:26:33.614Z,61.88
2023-01-20T06:29:01.930Z,61.25
2023-01-20T06:31:30.590Z,66.30
2023-01-20T06:33:59.042Z,65.55
2023-01-20T06:36:27.868Z,58.10
2023-01-20T06:38:57.487Z,54.65
2023-01-20T06:41:26.214Z,64.28
2023-01-20T06:43:54.526Z,63.35
2023-01-20T06:46:23.625Z,62.67
2023-01-20T06:48:52.058Z,56.85
2023-01-20T06:51:21.714Z,57.05
2023-01-20T06:53:50.036Z,77.47
2023-01-20T06:56:19.999Z,68.90
2023-01-20T06:58:48.637Z,62.28
2023-01-20T07:01:21.831Z,58.22
2023-01-20T07:03:50.579Z,62.38
2023-01-20T07:06:27.958Z,73.90
2023-01-20T07:08:58.688Z,68.60
2023-01-20T07:11:31.486Z,62.05
2023-01-20T07:13:59.901Z,68.28
2023-01-20T07:16:28.658Z,58.95
2023-01-20T07:18:57.114Z,61.97
2023-01-20T07:21:26.624Z,58.65
2023-01-20T07:23:55.131Z,62.30
2023-01-20T07:26:26.594Z,60.75
2023-01-20T07:31:26.765Z,59.33
2023-01-20T07:33:56.232Z,66.10
2023-01-20T07:36:25.288Z,64.68
2023-01-20T07:38:57.613Z,73.47
2023-01-20T07:41:26.179Z,76.45
2023-01-20T07:43:56.129Z,63.97
2023-01-20T07:46:24.968Z,65.70
2023-01-20T07:48:53.339Z,67.07
2023-01-20T07:51:21.995Z,60.95
2023-01-20T07:53:52.233Z,61.47
2023-01-20T07:56:22.501Z,65.47
2023-01-20T07:58:51.585Z,51.85
2023-01-20T08:01:25.810Z,55.17
2023-01-20T08:03:54.573Z,70.63
2023-01-20T08:06:27.422Z,61.63
2023-01-20T08:08:58.728Z,64.43
2023-01-20T08:11:27.721Z,63.85
2023-01-20T08:13:56.298Z,60.10
2023-01-20T08:16:26.335Z,60.75
2023-01-20T08:18:55.329Z,60.13
2023-01-20T08:21:26.123Z,69.03
2023-01-20T08:23:56.631Z,72.25
2023-01-20T08:26:25.951Z,67.88
2023-01-20T08:28:55.833Z,67.45
2023-01-20T08:31:26.119Z,71.35
2023-01-20T08:33:55.724Z,60.55
2023-01-20T08:36:25.927Z,59.03
2023-01-20T08:38:55.338Z,69.90
2023-01-20T08:41:25.864Z,63.95
2023-01-20T08:43:54.123Z,62.22
2023-01-20T08:46:23.423Z,66.80
2023-01-20T08:48:53.204Z,55.03
2023-01-20T08:51:23.781Z,52.67
2023-01-20T08:53:52.727Z,54.20
2023-01-20T08:56:21.571Z,49.42
2023-01-20T08:58:50.490Z,211.82
2023-01-20T09:01:21.088Z,130.90
2023-01-20T09:04:04.447Z,204.73
2023-01-20T09:06:40.568Z,129.90
2023-01-20T09:09:08.830Z,62.42
2023-01-20T09:11:38.155Z,177.68
2023-01-20T09:14:06.545Z,67.72
2023-01-20T09:16:35.565Z,85.57
2023-01-20T09:19:04.443Z,81.00
2023-01-20T09:21:33.119Z,179.88
2023-01-20T09:24:02.923Z,170.85
2023-01-20T09:26:38.876Z,118.18
2023-01-20T09:29:10.465Z,176.90
2023-01-20T09:31:40.105Z,230.77
2023-01-20T09:34:09.094Z,108.05
2023-01-20T09:36:37.766Z,70.22
2023-01-20T09:39:24.866Z,54.85
2023-01-20T09:42:11.565Z,55.42
2023-01-20T09:44:45.997Z,49.53
2023-01-20T09:47:20.841Z,48.22
2023-01-20T09:50:21.976Z,56.28
2023-01-20T09:53:02.920Z,64.90
2023-01-20T09:55:41.080Z,62.78
2023-01-20T09:58:22.910Z,68.80
2023-01-20T10:00:55.547Z,66.20
2023-01-20T10:03:30.852Z,62.92
2023-01-20T10:06:00.048Z,65.22
2023-01-20T10:08:33.016Z,58.67
2023-01-20T10:11:06.968Z,53.25
2023-01-20T10:13:37.995Z,47.83
2023-01-20T10:16:09.153Z,54.38
2023-01-20T10:18:43.706Z,61.22
2023-01-20T10:21:16.056Z,55.92
2023-01-20T10:23:48.493Z,51.30
2023-01-20T10:26:23.686Z,52.53
2023-01-20T10:28:56.583Z,50.85
2023-01-20T10:31:28.784Z,49.20
2023-01-20T10:34:00.559Z,43.53
2023-01-20T10:39:00.906Z,41.90
2023-01-20T10:41:37.783Z,45.00
2023-01-20T10:44:12.852Z,45.53
2023-01-20T10:46:55.265Z,46.70
2023-01-20T10:50:05.261Z,48.95
2023-01-20T10:52:45.484Z,47.03
2023-01-20T10:55:23.014Z,47.35
2023-01-20T10:57:56.565Z,43.30
2023-01-20T11:00:27.043Z,43.90
2023-01-20T11:02:58.157Z,45.05
2023-01-20T11:05:29.855Z,44.33
2023-01-20T11:07:59.639Z,38.72
2023-01-20T11:10:30.520Z,42.15
2023-01-20T11:13:02.660Z,40.23
2023-01-20T11:15:34.145Z,38.13
2023-01-20T11:18:22.617Z,37.40
2023-01-20T11:20:55.090Z,38.20
2023-01-20T11:23:27.094Z,38.95
2023-01-20T11:25:57.265Z,37.75
2023-01-20T11:28:27.533Z,35.70
2023-01-20T11:30:57.087Z,40.07
2023-01-20T11:33:27.041Z,29.08
2023-01-20T11:36:03.292Z,36.67
2023-01-20T11:38:33.053Z,35.95
2023-01-20T11:41:01.846Z,35.42
2023-01-20T11:43:37.944Z,37.97
2023-01-20T11:46:16.414Z,40.47
2023-01-20T11:48:44.804Z,38.30
2023-01-20T11:51:21.192Z,36.95
2023-01-20T11:53:49.820Z,39.50
2023-01-20T11:56:21.597Z,41.13
2023-01-20T11:58:55.063Z,41.08
2023-01-20T12:01:26.433Z,40.15
2023-01-20T12:04:29.138Z,40.50
2023-01-20T12:07:01.992Z,39.67
2023-01-20T12:09:33.248Z,63.65
2023-01-20T12:12:06.393Z,77.35
2023-01-20T12:14:39.620Z,49.60
2023-01-20T12:17:17.183Z,37.63
2023-01-20T12:19:59.527Z,35.47
2023-01-20T12:22:34.332Z,43.10
2023-01-20T12:25:08.854Z,38.22
2023-01-20T12:27:44.535Z,41.00
2023-01-20T12:30:30.618Z,43.28
2023-01-20T12:33:00.961Z,38.88
2023-01-20T12:35:31.151Z,42.03
2023-01-20T12:38:04.285Z,36.50
2023-01-20T12:40:39.056Z,36.40
2023-01-20T12:43:28.649Z,34.00
2023-01-20T12:46:16.053Z,35.75
2023-01-20T12:48:55.759Z,38.63
2023-01-20T12:51:37.344Z,35.63
2023-01-20T12:54:35.846Z,36.58
2023-01-20T12:57:22.138Z,41.13
2023-01-20T13:00:01.005Z,38.85
2023-01-20T13:02:46.067Z,33.65
2023-01-20T13:05:31.253Z,32.80
2023-01-20T13:08:08.307Z,36.30
2023-01-20T13:11:04.470Z,37.88
2023-01-20T13:13:56.061Z,37.03
2023-01-20T13:16:32.776Z,42.92
2023-01-20T13:19:08.959Z,40.72
2023-01-20T13:21:37.596Z,38.90
2023-01-20T13:24:07.548Z,45.92
2023-01-20T13:26:37.639Z,43.10
2023-01-20T13:29:06.196Z,43.03
2023-01-20T13:31:45.169Z,46.08
2023-01-20T13:34:33.496Z,64.90
2023-01-20T13:37:30.975Z,47.97
2023-01-20T13:40:00.700Z,45.58
2023-01-20T13:42:50.860Z,54.03
2023-01-20T13:45:27.836Z,51.10
2023-01-20T13:48:00.350Z,46.83
2023-01-20T13:50:33.569Z,48.45
2023-01-20T13:53:15.052Z,51.92
2023-01-20T13:55:54.909Z,51.88
2023-01-20T13:58:25.236Z,62.85
2023-01-20T14:00:55.105Z,67.57
2023-01-20T14:03:28.056Z,68.45
2023-01-20T14:06:00.419Z,54.22
2023-01-20T14:08:30.976Z,55.60
2023-01-20T14:11:13.257Z,54.10
2023-01-20T14:13:42.470Z,63.58
2023-01-20T14:16:20.994Z,58.78
2023-01-20T14:18:50.182Z,61.95
2023-01-20T14:21:23.664Z,60.10
2023-01-20T14:23:53.220Z,66.93
2023-01-20T14:26:24.133Z,70.68
2023-01-20T14:31:25.395Z,72.30
2023-01-20T14:33:58.040Z,72.25
2023-01-20T14:36:32.799Z,66.25
2023-01-20T14:39:09.759Z,71.00
2023-01-20T14:41:47.986Z,63.00
2023-01-20T14:44:22.088Z,65.57
2023-01-20T14:46:51.752Z,64.85
2023-01-20T14:49:21.880Z,61.13
2023-01-20T14:51:52.433Z,63.05
2023-01-20T14:54:34.637Z,58.60
2023-01-20T14:57:12.769Z,57.47
2023-01-20T14:59:41.531Z,56.78
2023-01-20T15:02:18.345Z,52.13
2023-01-20T15:04:47.223Z,52.13
2023-01-20T15:07:21.070Z,48.58
2023-01-20T15:09:54.721Z,45.97
2023-01-20T15:12:42.764Z,44.90
2023-01-20T15:15:19.293Z,41.35
2023-01-20T15:18:22.081Z,41.40
2023-01-20T15:21:11.739Z,44.50
2023-01-20T15:23:51.392Z,44.92
2023-01-20T15:26:27.135Z,44.83
2023-01-20T15:28:55.559Z,46.38
2023-01-20T15:31:24.834Z,48.25
2023-01-20T15:33:53.231Z,45.03
2023-01-20T15:36:24.880Z,44.97
2023-01-20T15:41:24.450Z,47.55
2023-01-20T15:43:52.817Z,42.70
2023-01-20T15:46:21.662Z,50.88
2023-01-20T15:48:50.075Z,52.25
2023-01-20T15:51:20.349Z,43.92
2023-01-20T15:53:49.408Z,46.28
2023-01-20T15:56:22.474Z,46.30
2023-01-20T15:58:51.544Z,45.78
2023-01-20T16:01:24.157Z,49.13
2023-01-20T16:03:53.060Z,51.72
2023-01-20T16:06:22.254Z,50.58
2023-01-20T16:08:51.740Z,49.10
2023-01-20T16:11:22.292Z,48.58
2023-01-20T16:13:50.840Z,47.43
2023-01-20T16:16:21.929Z,51.20
2023-01-20T16:18:51.141Z,54.35
2023-01-20T16:21:21.224Z,53.50
2023-01-20T16:23:49.742Z,54.30
2023-01-20T16:26:23.543Z,63.35
2023-01-20T16:28:52.428Z,52.10
2023-01-20T16:31:21.619Z,52.05
2023-01-20T16:33:50.302Z,49.90
2023-01-20T16:36:20.476Z,52.05
2023-01-20T16:38:51.862Z,46.38
2023-01-20T16:41:23.944Z,48.10
2023-01-20T16:43:53.611Z,53.10
2023-01-20T16:46:23.977Z,47.97
2023-01-20T16:48:53.478Z,52.22
2023-01-20T16:51:26.316Z,54.28
2023-01-20T16:53:54.929Z,47.83
2023-01-20T16:56:26.465Z,136.18
2023-01-20T16:58:57.839Z,61.08
2023-01-20T17:01:27.275Z,86.13
2023-01-20T17:03:57.319Z,88.70
2023-01-20T17:06:28.158Z,47.17
2023-01-20T17:08:58.095Z,52.42
2023-01-20T17:11:30.165Z,51.35
2023-01-20T17:13:59.308Z,53.50
2023-01-20T17:16:28.125Z,53.30
2023-01-20T17:19:00.486Z,58.53
2023-01-20T17:21:30.685Z,53.08
2023-01-20T17:24:01.186Z,56.08
2023-01-20T17:26:31.425Z,54.67
2023-01-20T17:29:02.404Z,56.55
2023-01-20T17:31:32.078Z,54.67
2023-01-20T17:34:00.622Z,51.92
2023-01-20T17:36:31.764Z,50.70
2023-01-20T17:39:00.149Z,59.72
2023-01-20T17:41:30.464Z,55.58
2023-01-20T17:43:58.749Z,57.28
2023-01-20T17:46:28.989Z,51.78
2023-01-20T17:48:57.886Z,56.97
2023-01-20T17:51:28.557Z,55.95
2023-01-20T17:53:58.634Z,58.78
2023-01-20T17:56:27.847Z,51.13
2023-01-20T17:58:57.880Z,57.75
2023-01-20T18:01:28.514Z,55.55
2023-01-20T18:03:59.039Z,53.25
2023-01-20T18:06:29.029Z,56.58
2023-01-20T18:08:59.345Z,52.47
2023-01-20T18:11:31.713Z,53.13
2023-01-20T18:14:02.771Z,60.08
2023-01-20T18:16:32.919Z,54.92
2023-01-20T18:19:02.165Z,51.08
2023-01-20T18:21:32.221Z,50.53
2023-01-20T18:24:01.812Z,52.35
2023-01-20T18:26:32.637Z,47.83
2023-01-20T18:29:04.208Z,52.28
2023-01-20T18:31:33.553Z,49.10
2023-01-20T18:34:04.038Z,49.78
2023-01-20T18:36:33.843Z,58.83
2023-01-20T18:39:04.817Z,56.72
2023-01-20T18:41:36.457Z,56.63
2023-01-20T18:44:08.004Z,57.33
2023-01-20T18:46:36.537Z,55.08
2023-01-20T18:49:07.960Z,51.53
2023-01-20T18:51:37.844Z,50.83
2023-01-20T18:54:09.765Z,50.42
2023-01-20T18:56:38.413Z,52.92
2023-01-20T18:59:08.947Z,53.03
2023-01-20T19:01:40.913Z,54.43
2023-01-20T19:04:11.006Z,53.80
2023-01-20T19:06:40.897Z,53.53
2023-01-20T19:09:10.025Z,46.53
2023-01-20T19:11:40.670Z,51.40
2023-01-20T19:14:13.457Z,47.17
2023-01-20T19:16:45.277Z,46.30
2023-01-20T19:19:15.650Z,50.63
2023-01-20T19:21:44.125Z,48.78
2023-01-20T19:24:19.860Z,49.22
2023-01-20T19:26:48.645Z,54.13
2023-01-20T19:29:19.884Z,82.20
2023-01-20T19:31:49.258Z,62.42
2023-01-20T19:34:18.155Z,50.30
2023-01-20T19:36:46.780Z,55.50
2023-01-20T19:39:16.239Z,53.33
2023-01-20T19:41:44.486Z,55.00
2023-01-20T19:44:13.935Z,53.42
2023-01-20T19:46:43.701Z,50.38
2023-01-20T19:49:13.199Z,48.60
2023-01-20T19:51:41.999Z,48.90
2023-01-20T19:54:12.948Z,49.30
2023-01-20T19:56:41.648Z,50.90
2023-01-20T19:59:13.024Z,46.75
2023-01-20T20:01:41.592Z,40.50
2023-01-20T20:04:14.094Z,68.50
2023-01-20T20:06:47.968Z,59.15
2023-01-20T20:09:19.031Z,46.95
2023-01-20T20:11:48.014Z,44.70
2023-01-20T20:14:18.412Z,39.42
2023-01-20T20:16:47.067Z,41.78
2023-01-20T20:19:18.877Z,42.22
2023-01-20T20:21:47.332Z,43.97
2023-01-20T20:24:17.443Z,40.22
2023-01-20T20:26:46.966Z,40.65
2023-01-20T20:29:17.418Z,41.50
2023-01-20T20:31:45.923Z,40.13
2023-01-20T20:34:17.957Z,41.85
2023-01-20T20:36:46.310Z,43.50
2023-01-20T20:39:17.294Z,37.35
2023-01-20T20:41:46.512Z,39.75
2023-01-20T20:44:15.270Z,45.13
2023-01-20T20:46:43.790Z,37.70
2023-01-20T20:49:14.994Z,42.17
2023-01-20T20:51:44.965Z,36.38
2023-01-20T20:54:16.895Z,39.65
2023-01-20T20:56:45.640Z,40.05
2023-01-20T20:59:19.569Z,38.55
2023-01-20T21:01:48.275Z,38.58
2023-01-20T21:04:16.893Z,39.63
2023-01-20T21:06:46.763Z,37.17
2023-01-20T21:09:15.495Z,38.95
2023-01-20T21:11:43.776Z,40.40
2023-01-20T21:14:12.707Z,41.15
2023-01-20T21:16:41.693Z,43.22
2023-01-20T21:19:10.483Z,44.10
2023-01-20T21:21:39.244Z,41.08
2023-01-20T21:24:10.548Z,43.25
2023-01-20T21:26:38.969Z,46.50
2023-01-20T21:29:07.562Z,40.28
2023-01-20T21:31:36.053Z,39.95
2023-01-20T21:34:04.828Z,40.92
2023-01-20T21:36:34.594Z,36.17
2023-01-20T21:39:03.281Z,38.97
2023-01-20T21:41:33.047Z,38.97
2023-01-20T21:44:19.056Z,40.20
2023-01-20T21:46:47.435Z,38.47
2023-01-20T21:49:33.475Z,39.13
2023-01-20T21:52:18.933Z,40.97
2023-01-20T21:54:47.925Z,35.00
2023-01-20T21:57:17.734Z,36.20
2023-01-20T21:59:46.957Z,34.80
2023-01-20T22:02:15.603Z,37.63
2023-01-20T22:04:46.207Z,36.92
2023-01-20T22:07:14.643Z,35.40
2023-01-20T22:09:43.276Z,38.45
2023-01-20T22:12:12.069Z,36.83
2023-01-20T22:14:42.438Z,34.65
2023-01-20T22:17:12.399Z,41.65
2023-01-20T22:19:44.004Z,34.23
2023-01-20T22:24:43.860Z,36.28
2023-01-20T22:27:12.185Z,35.72
2023-01-20T22:29:42.435Z,34.47
2023-01-20T22:32:10.688Z,37.88
2023-01-20T22:34:39.591Z,34.70
2023-01-20T22:37:08.170Z,38.10
2023-01-20T22:39:37.012Z,42.03
2023-01-20T22:42:05.563Z,53.22
2023-01-20T22:44:34.148Z,39.72
2023-01-20T22:47:06.011Z,35.20
2023-01-20T22:49:35.160Z,35.88
2023-01-20T22:52:03.648Z,35.30
2023-01-20T22:54:32.351Z,38.10
2023-01-20T22:57:00.718Z,34.22
2023-01-20T22:59:29.497Z,33.20
2023-01-20T23:01:57.822Z,31.08
2023-01-20T23:04:28.174Z,35.42
2023-01-20T23:06:56.392Z,33.53
2023-01-20T23:09:25.056Z,32.88
2023-01-20T23:11:53.457Z,31.98
2023-01-20T23:14:42.175Z,34.35
2023-01-20T23:17:10.435Z,32.50
2023-01-20T23:19:40.369Z,30.67
2023-01-20T23:22:09.387Z,30.65
2023-01-20T23:24:38.185Z,27.10
2023-01-20T23:27:06.540Z,22.15
2023-01-20T23:29:35.082Z,17.63
2023-01-20T23:32:03.361Z,15.63
2023-01-20T23:34:32.105Z,12.85
2023-01-20T23:37:01.796Z,13.55
2023-01-20T23:39:30.271Z,14.60
2023-01-20T23:41:58.677Z,12.18
2023-01-20T23:44:27.249Z,14.57
2023-01-20T23:46:56.365Z,11.95
2023-01-20T23:49:25.187Z,11.07
2023-01-20T23:51:53.689Z,11.57
2023-01-20T23:54:24.534Z,8.52
2023-01-20T23:56:52.961Z,11.65
2023-01-20T23:59:21.820Z,11.23
